Time;durP1;ratioP1;P1;durP2;ratioP2;P2;SDS_P1;SDS_P2;PMS_P1;PMS_P2;Temp;Humidity;BMP_temperature;BMP_pressure;BME280_temperature;BME280_humidity;BME280_pressure;Samples;Min_cycle;Max_cycle;Signal;HPM_P1;HPM_P2
2021/06/18 00:02:00;;;;;;;10.15;9.20;;;21.80;92.30;;;;;;6226021;28;20049;-79
2021/06/18 00:05:02;;;;;;;12.05;9.95;;;21.70;92.30;;;;;;6226030;28;20164;-79
2021/06/18 00:08:04;;;;;;;12.60;10.20;;;21.70;92.50;;;;;;6225480;28;20396;-79
2021/06/18 00:11:06;;;;;;;16.08;9.93;;;21.60;92.60;;;;;;6225306;28;20131;-79
2021/06/18 00:14:09;;;;;;;11.70;10.52;;;21.50;92.70;;;;;;6225731;28;20191;-79
2021/06/18 00:17:11;;;;;;;11.23;10.23;;;21.50;92.70;;;;;;6226353;28;20058;-79
2021/06/18 00:20:14;;;;;;;11.52;10.57;;;21.40;92.80;;;;;;6225527;28;20132;-79
2021/06/18 00:23:17;;;;;;;10.57;9.70;;;21.30;92.90;;;;;;6226023;28;20074;-79
2021/06/18 00:26:19;;;;;;;11.75;10.60;;;21.30;93.00;;;;;;6226641;28;20085;-79
2021/06/18 00:29:22;;;;;;;10.88;9.85;;;21.30;93.00;;;;;;6226590;28;20046;-79
2021/06/18 00:32:24;;;;;;;12.48;11.23;;;21.20;93.20;;;;;;6225958;28;20105;-79
2021/06/18 00:35:26;;;;;;;10.93;9.90;;;21.10;93.40;;;;;;6223513;28;20582;-79
2021/06/18 00:38:28;;;;;;;14.32;9.57;;;21.10;93.40;;;;;;6225236;28;20065;-79
2021/06/18 00:41:29;;;;;;;10.35;9.40;;;21.00;93.30;;;;;;6225576;28;20120;-79
2021/06/18 00:44:33;;;;;;;11.05;9.65;;;21.00;93.20;;;;;;6225378;28;20503;-79
2021/06/18 00:47:37;;;;;;;9.70;8.90;;;21.00;93.00;;;;;;6224173;28;20129;-79
2021/06/18 00:50:39;;;;;;;9.43;8.57;;;21.10;92.40;;;;;;6225970;28;20108;-79
2021/06/18 00:53:41;;;;;;;8.88;8.10;;;21.10;92.10;;;;;;6224604;28;20049;-79
2021/06/18 00:56:44;;;;;;;10.75;9.65;;;21.10;92.00;;;;;;6225227;28;20471;-79
2021/06/18 00:59:47;;;;;;;10.80;9.63;;;21.20;92.20;;;;;;6224447;28;20199;-79
2021/06/18 01:02:50;;;;;;;9.73;8.55;;;21.10;92.30;;;;;;6224264;28;20077;-79
2021/06/18 01:05:52;;;;;;;9.70;8.77;;;21.00;92.40;;;;;;6225090;28;20054;-79
2021/06/18 01:09:00;;;;;;;14.57;10.70;;;21.00;92.50;;;;;;6225363;28;20076;-79
2021/06/18 01:12:05;;;;;;;;;;;21.00;92.60;;;;;;6224885;28;20069;-79
2021/06/18 01:15:15;;;;;;;10.10;9.25;;;20.90;92.60;;;;;;6224094;28;20408;-79
2021/06/18 01:18:23;;;;;;;11.70;8.25;;;20.90;92.80;;;;;;6224439;28;20161;-80
2021/06/18 01:21:30;;;;;;;;;;;20.80;93.10;;;;;;6225168;28;20117;-80
2021/06/18 01:24:45;;;;;;;13.57;10.98;;;20.90;92.80;;;;;;6225834;28;20005;-80
2021/06/18 01:27:53;;;;;;;11.73;10.63;;;21.10;92.90;;;;;;6224918;28;20073;-80
2021/06/18 01:30:58;;;;;;;13.20;11.82;;;21.30;92.80;;;;;;6224976;28;20533;-80
2021/06/18 01:34:02;;;;;;;12.82;11.63;;;21.50;93.00;;;;;;6225673;28;20500;-80
2021/06/18 01:37:08;;;;;;;16.30;11.25;;;21.80;92.90;;;;;;6225385;28;20151;-80
2021/06/18 01:40:12;;;;;;;16.10;11.85;;;21.90;92.60;;;;;;6225137;28;20125;-79
2021/06/18 01:43:16;;;;;;;11.95;10.82;;;22.00;92.50;;;;;;6225983;28;20131;-80
2021/06/18 01:46:23;;;;;;;12.90;11.70;;;22.10;92.40;;;;;;6225557;28;20070;-80
2021/06/18 01:49:26;;;;;;;14.52;12.90;;;22.10;92.20;;;;;;6229568;28;20124;-80
2021/06/18 01:52:29;;;;;;;13.93;12.52;;;22.10;92.20;;;;;;6229212;28;20085;-80
2021/06/18 01:55:32;;;;;;;14.35;12.13;;;22.10;92.10;;;;;;6227964;28;20125;-80
2021/06/18 01:58:35;;;;;;;14.13;12.60;;;22.10;92.00;;;;;;6226989;28;20058;-80
2021/06/18 02:01:43;;;;;;;13.60;12.20;;;22.20;91.90;;;;;;6227583;28;20077;-80
2021/06/18 02:04:47;;;;;;;15.38;13.88;;;22.20;91.80;;;;;;6226749;28;20434;-79
2021/06/18 02:07:50;;;;;;;13.25;11.85;;;22.20;91.70;;;;;;6226387;28;20080;-80
2021/06/18 02:10:53;;;;;;;13.65;11.57;;;22.20;91.60;;;;;;6229044;28;20141;-79
2021/06/18 02:13:56;;;;;;;12.05;10.85;;;22.20;91.50;;;;;;6230794;28;20085;-80
2021/06/18 02:17:02;;;;;;;13.93;12.48;;;22.30;91.40;;;;;;6231344;28;20096;-80
2021/06/18 02:20:07;;;;;;;12.52;11.32;;;22.30;91.30;;;;;;6230071;28;20097;-80
2021/06/18 02:23:10;;;;;;;12.65;10.80;;;22.30;91.10;;;;;;6229621;28;20049;-80
2021/06/18 02:26:12;;;;;;;20.40;10.80;;;22.30;91.00;;;;;;6230628;28;20038;-80
2021/06/18 02:29:15;;;;;;;11.50;10.00;;;22.30;90.90;;;;;;6230605;28;20499;-79
2021/06/18 02:32:20;;;;;;;10.73;9.82;;;22.30;90.70;;;;;;6229850;28;20069;-80
2021/06/18 02:35:22;;;;;;;10.45;9.50;;;22.30;90.60;;;;;;6229924;28;20492;-80
2021/06/18 02:38:25;;;;;;;10.55;9.52;;;22.20;90.50;;;;;;6230379;28;20132;-80
2021/06/18 02:41:26;;;;;;;12.10;10.00;;;22.20;90.30;;;;;;6229387;28;20511;-79
2021/06/18 02:44:28;;;;;;;10.77;9.43;;;22.20;90.20;;;;;;6229459;28;20129;-80
2021/06/18 02:47:38;;;;;;;9.88;8.98;;;22.20;90.00;;;;;;6230496;28;20046;-80
2021/06/18 02:50:42;;;;;;;12.27;9.95;;;22.20;90.00;;;;;;6228694;28;20444;-79
2021/06/18 02:53:51;;;;;;;11.02;9.95;;;22.10;89.80;;;;;;6229051;28;20307;-79
2021/06/18 02:56:58;;;;;;;11.90;10.73;;;22.20;88.60;;;;;;6229515;28;20056;-79
2021/06/18 03:00:05;;;;;;;8.63;7.82;;;22.20;88.10;;;;;;6228375;28;20070;-79
2021/06/18 03:03:09;;;;;;;9.85;8.85;;;22.30;87.40;;;;;;6230127;28;20129;-79
2021/06/18 03:06:14;;;;;;;16.58;8.27;;;22.30;86.10;;;;;;6229960;28;20129;-80
2021/06/18 03:09:20;;;;;;;10.43;8.77;;;22.30;85.70;;;;;;6229583;28;20108;-80
2021/06/18 03:12:25;;;;;;;8.77;7.85;;;22.30;85.70;;;;;;6229476;28;20049;-81
2021/06/18 03:15:28;;;;;;;13.82;7.82;;;22.30;84.30;;;;;;6229901;28;20054;-81
2021/06/18 03:18:33;;;;;;;8.45;7.13;;;22.40;84.30;;;;;;6227972;28;20069;-78
2021/06/18 03:21:38;;;;;;;8.05;7.13;;;22.40;83.70;;;;;;6227317;28;20396;-78
2021/06/18 03:24:41;;;;;;;8.60;7.10;;;22.30;83.20;;;;;;6228020;28;20497;-78
2021/06/18 03:27:45;;;;;;;6.18;5.65;;;22.40;82.10;;;;;;6227514;28;20129;-79
2021/06/18 03:30:48;;;;;;;7.15;6.07;;;22.40;81.60;;;;;;6228426;28;20567;-78
2021/06/18 03:33:52;;;;;;;6.72;5.65;;;22.40;80.10;;;;;;6228096;28;20100;-79
2021/06/18 03:36:55;;;;;;;6.32;5.72;;;22.40;79.30;;;;;;6227305;28;20431;-78
2021/06/18 03:39:57;;;;;;;6.18;5.25;;;22.50;78.40;;;;;;6226242;28;20061;-78
2021/06/18 03:42:59;;;;;;;6.68;6.00;;;22.50;78.10;;;;;;6227216;28;20093;-78
2021/06/18 03:46:04;;;;;;;6.13;5.40;;;22.60;76.90;;;;;;6227906;28;20128;-79
2021/06/18 03:49:08;;;;;;;8.60;5.47;;;22.70;76.60;;;;;;6227216;28;20536;-79
2021/06/18 03:52:10;;;;;;;5.38;4.68;;;22.70;76.10;;;;;;6227160;28;20137;-79
2021/06/18 03:55:12;;;;;;;8.82;4.95;;;22.80;75.00;;;;;;6227045;28;20129;-79
2021/06/18 03:58:19;;;;;;;7.50;5.18;;;22.90;74.60;;;;;;6226782;28;20092;-79
2021/06/18 04:01:21;;;;;;;6.13;5.50;;;22.90;73.90;;;;;;6202336;28;20050;-79
2021/06/18 04:04:27;;;;;;;5.60;5.10;;;23.00;73.80;;;;;;6201767;28;20046;-79
2021/06/18 04:07:31;;;;;;;7.85;4.70;;;23.10;73.40;;;;;;6202598;28;20532;-80
2021/06/18 04:10:34;;;;;;;6.43;4.82;;;23.10;73.30;;;;;;6202298;28;20049;-79
2021/06/18 04:13:37;;;;;;;5.45;4.88;;;23.20;72.30;;;;;;6199929;28;20535;-79
2021/06/18 04:16:39;;;;;;;5.28;4.32;;;23.30;72.20;;;;;;6201657;28;20082;-79
2021/06/18 04:19:45;;;;;;;5.50;4.90;;;23.40;71.90;;;;;;6201204;28;20604;-79
2021/06/18 04:22:47;;;;;;;5.68;4.80;;;23.40;72.00;;;;;;6201093;28;20058;-79
2021/06/18 04:25:49;;;;;;;6.00;4.93;;;23.50;71.60;;;;;;6200914;28;20152;-80
2021/06/18 04:28:52;;;;;;;6.53;4.05;;;23.60;71.10;;;;;;6203007;28;20128;-80
2021/06/18 04:31:54;;;;;;;6.70;3.88;;;23.70;70.30;;;;;;6201117;28;20050;-79
2021/06/18 04:34:57;;;;;;;9.23;4.47;;;23.70;70.50;;;;;;6202200;28;20089;-79
2021/06/18 04:38:00;;;;;;;6.18;3.97;;;23.80;70.40;;;;;;6201205;28;20149;-79
2021/06/18 04:41:01;;;;;;;5.45;4.05;;;23.90;69.70;;;;;;6201532;28;20051;-80
2021/06/18 04:44:04;;;;;;;5.47;4.55;;;24.00;70.20;;;;;;6203840;28;20042;-81
2021/06/18 04:47:06;;;;;;;28.58;6.15;;;24.20;69.00;;;;;;6203649;28;20057;-82
2021/06/18 04:50:10;;;;;;;5.85;4.43;;;24.30;69.10;;;;;;6201768;28;20162;-80
2021/06/18 04:53:12;;;;;;;9.10;4.70;;;24.50;68.70;;;;;;6211001;28;20050;-79
2021/06/18 04:56:14;;;;;;;5.75;4.07;;;24.70;68.50;;;;;;6203771;28;20139;-81
2021/06/18 04:59:19;;;;;;;7.45;4.63;;;24.90;67.60;;;;;;6202865;28;20412;-82
2021/06/18 05:02:21;;;;;;;5.43;3.38;;;25.10;68.00;;;;;;6202529;28;20081;-80
2021/06/18 05:05:24;;;;;;;9.40;4.30;;;25.30;66.60;;;;;;6202128;28;20077;-82
2021/06/18 05:08:26;;;;;;;5.57;4.95;;;25.40;67.40;;;;;;6202671;28;20050;-80
2021/06/18 05:11:28;;;;;;;6.72;3.60;;;25.50;66.00;;;;;;6203090;28;20506;-82
2021/06/18 05:14:30;;;;;;;8.35;3.63;;;25.70;65.60;;;;;;6203174;28;20115;-80
2021/06/18 05:17:31;;;;;;;8.00;3.58;;;25.90;67.40;;;;;;6203913;28;20053;-80
2021/06/18 05:20:35;;;;;;;4.95;4.07;;;26.10;67.20;;;;;;6209304;28;20066;-82
2021/06/18 05:23:37;;;;;;;4.47;3.83;;;26.30;65.80;;;;;;6208204;28;20054;-82
2021/06/18 05:26:38;;;;;;;6.72;4.20;;;26.50;66.10;;;;;;6203840;28;20093;-80
2021/06/18 05:29:40;;;;;;;4.43;4.03;;;26.70;67.80;;;;;;6203636;28;20101;-80
2021/06/18 05:32:42;;;;;;;7.82;4.60;;;26.90;68.20;;;;;;6204657;28;20050;-83
2021/06/18 05:35:45;;;;;;;6.80;3.72;;;27.00;68.90;;;;;;6203611;28;20100;-82
2021/06/18 05:38:47;;;;;;;6.70;4.10;;;27.20;66.50;;;;;;6202445;28;20539;-79
2021/06/18 05:41:49;;;;;;;6.10;3.67;;;27.40;65.90;;;;;;6202817;28;20066;-82
2021/06/18 05:44:51;;;;;;;5.35;2.95;;;27.50;63.10;;;;;;6205631;28;20089;-80
2021/06/18 05:47:53;;;;;;;3.38;2.85;;;27.50;65.60;;;;;;6207794;28;20046;-83
2021/06/18 05:50:56;;;;;;;4.57;3.28;;;27.60;65.70;;;;;;6207836;28;20120;-82
2021/06/18 05:53:58;;;;;;;7.00;3.63;;;27.90;62.70;;;;;;6215593;28;20062;-82
2021/06/18 05:57:00;;;;;;;8.63;3.75;;;28.10;62.50;;;;;;6208134;28;20574;-79
2021/06/18 06:00:03;;;;;;;4.45;3.67;;;28.30;61.00;;;;;;6207430;28;20049;-80
2021/06/18 06:03:05;;;;;;;3.67;2.47;;;28.30;60.30;;;;;;6206330;28;20134;-82
2021/06/18 06:06:09;;;;;;;7.13;2.45;;;28.40;61.00;;;;;;6210339;28;20058;-81
2021/06/18 06:09:11;;;;;;;3.65;2.30;;;28.50;59.70;;;;;;6217317;28;20057;-83
2021/06/18 06:12:13;;;;;;;4.63;3.25;;;28.60;56.50;;;;;;6229093;28;20412;-80
2021/06/18 06:15:15;;;;;;;2.80;2.10;;;28.60;56.20;;;;;;6207658;28;20098;-81
2021/06/18 06:18:17;;;;;;;2.75;2.17;;;28.70;55.90;;;;;;6206529;28;20470;-81
2021/06/18 06:21:21;;;;;;;3.75;2.83;;;28.70;56.00;;;;;;6207051;28;20050;-81
2021/06/18 06:24:23;;;;;;;7.00;2.30;;;28.80;58.30;;;;;;6205945;28;20181;-80
2021/06/18 06:27:24;;;;;;;7.43;2.50;;;28.80;57.30;;;;;;6207276;28;20091;-81
2021/06/18 06:30:26;;;;;;;4.72;2.45;;;28.90;56.40;;;;;;6207109;28;20081;-81
2021/06/18 06:33:28;;;;;;;3.92;2.28;;;29.10;54.70;;;;;;6207759;28;20569;-81
2021/06/18 06:36:31;;;;;;;4.70;2.45;;;29.00;54.80;;;;;;6206879;28;20049;-81
2021/06/18 06:39:33;;;;;;;4.50;2.40;;;29.00;54.50;;;;;;6217954;28;20081;-80
2021/06/18 06:42:35;;;;;;;3.13;2.60;;;29.00;55.10;;;;;;6231175;28;20096;-81
2021/06/18 06:45:37;;;;;;;7.30;2.20;;;29.00;53.40;;;;;;6231804;28;20114;-81
2021/06/18 06:48:39;;;;;;;3.30;2.05;;;28.80;54.00;;;;;;6230732;28;20622;-81
2021/06/18 06:51:42;;;;;;;4.50;2.17;;;28.80;54.40;;;;;;6231029;28;20093;-81
2021/06/18 06:54:43;;;;;;;2.47;1.85;;;29.00;55.10;;;;;;6232105;28;20123;-81
2021/06/18 06:57:45;;;;;;;6.07;2.00;;;29.30;54.70;;;;;;6231974;28;20100;-81
2021/06/18 07:00:47;;;;;;;8.40;2.20;;;29.60;54.30;;;;;;6232201;28;20508;-81
2021/06/18 07:03:49;;;;;;;7.95;2.50;;;29.70;52.60;;;;;;6233178;28;20058;-81
2021/06/18 07:06:52;;;;;;;3.50;2.60;;;29.90;51.40;;;;;;6232756;28;20066;-81
2021/06/18 07:09:54;;;;;;;6.18;3.22;;;29.80;51.70;;;;;;6232420;28;20072;-81
2021/06/18 07:12:56;;;;;;;5.82;2.50;;;29.90;51.60;;;;;;6227928;28;20046;-81
2021/06/18 07:15:57;;;;;;;7.18;3.17;;;30.00;52.60;;;;;;6207278;28;20070;-81
2021/06/18 07:18:59;;;;;;;4.75;2.83;;;30.10;51.50;;;;;;6207554;28;20046;-81
2021/06/18 07:22:03;;;;;;;3.55;2.80;;;30.20;51.90;;;;;;6227561;23;20487;-74
2021/06/18 07:25:06;;;;;;;4.57;2.42;;;30.30;50.80;;;;;;6200321;28;20140;-74
2021/06/18 07:28:08;;;;;;;5.60;4.45;;;30.20;49.80;;;;;;6199302;28;20058;-74
2021/06/18 07:31:10;;;;;;;7.05;3.03;;;29.90;50.30;;;;;;6199042;28;20129;-74
2021/06/18 07:34:13;;;;;;;4.53;3.25;;;29.70;52.70;;;;;;6198959;28;20137;-74
2021/06/18 07:37:17;;;;;;;6.07;2.63;;;29.80;51.30;;;;;;6199061;28;20137;-75
2021/06/18 07:40:19;;;;;;;3.30;2.90;;;30.10;51.40;;;;;;6198770;28;20038;-75
2021/06/18 07:43:21;;;;;;;5.30;2.85;;;30.50;51.00;;;;;;6194702;28;20208;-74
2021/06/18 07:46:24;;;;;;;4.22;3.45;;;30.60;50.10;;;;;;6198948;28;20078;-74
2021/06/18 07:49:26;;;;;;;5.60;2.90;;;30.60;50.00;;;;;;6199201;28;20062;-75
2021/06/18 07:52:29;;;;;;;6.72;3.10;;;30.70;50.70;;;;;;6198597;28;20046;-75
2021/06/18 07:55:31;;;;;;;8.05;4.07;;;30.80;50.10;;;;;;6198933;28;20097;-75
2021/06/18 07:58:33;;;;;;;8.52;3.80;;;30.50;51.00;;;;;;6185723;28;20042;-74
2021/06/18 08:01:35;;;;;;;5.28;3.25;;;30.40;50.70;;;;;;6197818;28;20181;-75
2021/06/18 08:04:36;;;;;;;6.65;3.78;;;30.40;51.00;;;;;;6197308;28;20137;-74
2021/06/18 08:07:41;;;;;;;4.93;3.03;;;30.30;50.30;;;;;;6196879;28;20070;-75
2021/06/18 08:10:43;;;;;;;7.57;3.90;;;30.10;51.10;;;;;;6197148;28;20038;-75
2021/06/18 08:13:45;;;;;;;3.50;2.80;;;29.80;51.30;;;;;;6196930;28;20097;-75
2021/06/18 08:16:47;;;;;;;6.90;3.38;;;29.80;51.50;;;;;;6197791;28;20061;-75
2021/06/18 08:19:48;;;;;;;4.97;3.90;;;30.10;52.70;;;;;;6196660;28;20258;-77
2021/06/18 08:22:53;;;;;;;5.60;2.80;;;30.90;50.00;;;;;;6197051;28;20677;-75
2021/06/18 08:25:55;;;;;;;5.13;4.53;;;32.20;48.80;;;;;;6197774;28;20105;-75
2021/06/18 08:28:57;;;;;;;6.40;2.95;;;33.20;47.80;;;;;;6197824;28;20050;-75
2021/06/18 08:31:59;;;;;;;19.45;3.97;;;33.50;46.40;;;;;;6196743;28;20082;-75
2021/06/18 08:35:01;;;;;;;4.85;3.33;;;34.70;45.00;;;;;;6196701;28;20188;-76
2021/06/18 08:38:04;;;;;;;6.63;3.25;;;35.90;42.00;;;;;;6196820;28;20070;-75
2021/06/18 08:41:08;;;;;;;6.03;3.13;;;36.90;40.40;;;;;;6196750;28;20846;-75
2021/06/18 08:44:09;;;;;;;5.57;3.90;;;37.60;39.00;;;;;;6197077;28;20047;-76
2021/06/18 08:47:11;;;;;;;5.40;4.05;;;38.00;37.50;;;;;;6196583;28;20144;-76
2021/06/18 08:50:16;;;;;;;4.53;3.00;;;38.40;37.20;;;;;;6196760;28;20046;-75
2021/06/18 08:53:20;;;;;;;6.97;3.70;;;38.60;36.70;;;;;;6197070;28;20192;-76
2021/06/18 08:56:22;;;;;;;6.75;5.07;;;38.70;36.00;;;;;;6196655;28;20416;-75
2021/06/18 08:59:23;;;;;;;9.70;4.57;;;38.30;36.50;;;;;;6189933;28;20125;-76
2021/06/18 09:02:25;;;;;;;7.32;3.90;;;37.20;38.10;;;;;;6195921;28;20049;-76
2021/06/18 09:05:29;;;;;;;7.28;3.67;;;36.20;39.20;;;;;;6196693;28;20500;-76
2021/06/18 09:08:33;;;;;;;4.10;3.60;;;35.40;41.10;;;;;;6196235;28;20137;-76
2021/06/18 09:11:39;;;;;;;7.63;4.50;;;34.80;41.90;;;;;;6196413;28;20133;-75
2021/06/18 09:14:42;;;;;;;5.65;3.78;;;34.50;42.20;;;;;;6196423;28;20121;-75
2021/06/18 09:17:43;;;;;;;7.78;3.90;;;34.00;44.00;;;;;;6196968;28;20047;-75
2021/06/18 09:20:45;;;;;;;4.50;4.07;;;33.80;43.80;;;;;;6201340;28;20086;-76
2021/06/18 09:23:50;;;;;;;9.50;3.72;;;33.70;44.60;;;;;;6201224;28;20061;-74
2021/06/18 09:26:52;;;;;;;5.47;4.30;;;33.60;43.90;;;;;;6201166;28;20423;-76
2021/06/18 09:29:54;;;;;;;7.40;4.90;;;33.40;45.40;;;;;;6200762;28;20057;-76
2021/06/18 09:33:00;;;;;;;9.15;4.38;;;33.60;44.90;;;;;;6201415;28;20094;-74
2021/06/18 09:36:03;;;;;;;4.28;3.88;;;33.70;43.90;;;;;;6200996;28;20447;-75
2021/06/18 09:39:09;;;;;;;5.93;4.18;;;33.50;44.80;;;;;;6201228;28;20181;-75
2021/06/18 09:42:12;;;;;;;8.75;3.90;;;33.40;45.30;;;;;;6200978;28;20116;-75
2021/06/18 09:45:15;;;;;;;8.35;5.25;;;33.40;45.60;;;;;;6201527;28;20412;-75
2021/06/18 09:48:20;;;;;;;9.45;4.75;;;33.40;45.40;;;;;;6200892;28;20526;-75
2021/06/18 09:51:22;;;;;;;7.28;4.18;;;33.60;45.30;;;;;;6169276;28;20042;-75
2021/06/18 09:54:31;;;;;;;7.85;4.72;;;33.70;45.50;;;;;;6200693;28;20101;-75
2021/06/18 09:57:39;;;;;;;6.30;4.57;;;33.70;45.20;;;;;;6201184;28;20060;-75
2021/06/18 10:00:41;;;;;;;21.05;5.40;;;33.70;45.80;;;;;;6188542;28;20054;-75
2021/06/18 10:04:03;;;;;;;5.85;4.55;;;33.50;46.80;;;;;;6200356;28;20120;-76
2021/06/18 10:07:05;;;;;;;7.57;4.63;;;33.40;45.50;;;;;;6200624;28;20082;-75
2021/06/18 10:10:10;;;;;;;8.48;4.90;;;33.00;46.80;;;;;;6200035;28;20078;-75
2021/06/18 10:13:12;;;;;;;5.20;4.70;;;32.80;46.70;;;;;;6201181;28;20086;-76
2021/06/18 10:16:17;;;;;;;6.20;4.45;;;32.80;46.80;;;;;;6200203;28;20049;-75
2021/06/18 10:19:19;;;;;;;7.68;4.53;;;32.80;48.30;;;;;;6199826;28;20057;-76
2021/06/18 10:22:23;;;;;;;9.90;5.10;;;32.80;47.40;;;;;;6199924;28;20452;-76
2021/06/18 10:25:30;;;;;;;6.90;5.00;;;33.00;47.20;;;;;;6200115;28;20087;-75
2021/06/18 10:28:33;;;;;;;6.78;5.03;;;33.10;46.60;;;;;;6200090;28;20050;-75
2021/06/18 10:31:36;;;;;;;6.30;5.70;;;33.10;47.00;;;;;;6198854;28;20504;-75
2021/06/18 10:34:40;;;;;;;11.45;6.05;;;33.30;46.90;;;;;;6199821;28;20121;-75
2021/06/18 10:37:48;;;;;;;9.05;6.97;;;33.40;47.60;;;;;;6199709;28;20439;-75
2021/06/18 10:40:52;;;;;;;13.43;5.40;;;33.50;47.20;;;;;;6200084;28;20047;-76
2021/06/18 10:43:56;;;;;;;9.02;5.60;;;33.70;47.30;;;;;;6199740;28;20128;-76
2021/06/18 10:46:58;;;;;;;9.20;6.28;;;33.80;47.70;;;;;;6199612;28;20050;-76
2021/06/18 10:50:01;;;;;;;12.77;6.38;;;33.80;47.90;;;;;;6199364;28;20129;-76
2021/06/18 10:53:19;;;;;;;11.75;5.60;;;33.80;47.90;;;;;;6200116;28;20050;-76
2021/06/18 10:56:24;;;;;;;7.53;6.80;;;33.90;47.50;;;;;;6199124;28;20050;-76
2021/06/18 10:59:31;;;;;;;12.30;6.53;;;33.90;47.80;;;;;;6198864;28;20050;-76
2021/06/18 11:02:39;;;;;;;14.30;5.95;;;34.00;47.10;;;;;;6197622;28;20516;-76
2021/06/18 11:05:42;;;;;;;6.47;5.85;;;34.10;46.70;;;;;;6199438;28;20662;-75
2021/06/18 11:08:47;;;;;;;8.55;6.13;;;34.40;46.60;;;;;;6199572;28;20054;-75
2021/06/18 11:11:50;;;;;;;7.53;6.10;;;34.40;46.30;;;;;;6199198;28;20050;-75
2021/06/18 11:14:52;;;;;;;8.68;5.95;;;34.80;46.10;;;;;;6198490;28;20129;-75
2021/06/18 11:18:02;;;;;;;8.70;6.55;;;35.30;46.00;;;;;;6199168;28;20084;-76
2021/06/18 11:21:07;;;;;;;8.25;5.20;;;35.70;44.20;;;;;;6198860;28;20473;-76
2021/06/18 11:24:09;;;;;;;8.65;6.05;;;35.70;44.40;;;;;;6199244;28;20057;-75
2021/06/18 11:27:25;;;;;;;6.10;5.50;;;35.90;45.00;;;;;;6199236;28;20174;-75
2021/06/18 11:30:29;;;;;;;16.30;8.10;;;36.20;44.40;;;;;;6198652;28;20042;-75
2021/06/18 11:33:58;;;;;;;14.15;6.10;;;36.40;43.70;;;;;;6199308;28;20093;-75
2021/06/18 11:37:00;;;;;;;10.93;6.05;;;36.90;43.70;;;;;;6199125;28;20082;-76
2021/06/18 11:40:08;;;;;;;9.65;6.00;;;37.20;43.20;;;;;;6198934;28;20135;-75
2021/06/18 11:43:11;;;;;;;12.02;7.78;;;37.40;43.00;;;;;;6199941;28;20112;-76
2021/06/18 11:46:13;;;;;;;13.52;6.90;;;37.30;43.10;;;;;;6200740;28;20121;-75
2021/06/18 11:49:18;;;;;;;8.43;6.47;;;37.40;42.90;;;;;;6200442;28;20093;-75
2021/06/18 11:52:20;;;;;;;7.43;6.65;;;37.40;43.10;;;;;;6200560;28;20072;-75
2021/06/18 11:55:29;;;;;;;9.48;7.85;;;37.20;42.70;;;;;;6200776;28;20125;-75
2021/06/18 11:58:32;;;;;;;7.85;5.95;;;37.40;42.60;;;;;;6201102;28;20042;-74
2021/06/18 12:01:34;;;;;;;11.00;6.15;;;37.20;42.50;;;;;;6198914;28;20045;-75
2021/06/18 12:04:36;;;;;;;18.88;6.70;;;36.90;43.00;;;;;;6196730;28;20136;-75
2021/06/18 12:07:38;;;;;;;8.30;5.95;;;36.90;43.50;;;;;;6198220;28;20108;-75
2021/06/18 12:10:40;;;;;;;17.00;6.85;;;37.10;43.50;;;;;;6197176;28;20506;-75
2021/06/18 12:13:51;;;;;;;13.52;6.43;;;37.20;43.30;;;;;;6197730;28;20050;-75
2021/06/18 12:16:53;;;;;;;14.85;6.40;;;37.50;42.60;;;;;;6198892;28;20046;-75
2021/06/18 12:19:55;;;;;;;23.77;6.90;;;37.50;42.50;;;;;;6197646;28;20113;-75
2021/06/18 12:22:57;;;;;;;10.77;6.53;;;37.70;42.60;;;;;;6197714;28;20070;-75
2021/06/18 12:25:59;;;;;;;12.90;7.95;;;37.80;42.50;;;;;;6197796;28;20058;-75
2021/06/18 12:29:05;;;;;;;7.53;6.70;;;38.00;43.20;;;;;;6197975;28;20152;-76
2021/06/18 12:32:08;;;;;;;14.65;7.25;;;38.00;41.80;;;;;;6197596;28;20527;-76
2021/06/18 12:35:11;;;;;;;13.25;6.85;;;38.10;42.20;;;;;;6197380;28;20532;-77
2021/06/18 12:38:16;;;;;;;11.10;6.28;;;38.10;42.10;;;;;;6197616;28;20531;-75
2021/06/18 12:41:25;;;;;;;12.02;6.28;;;38.30;41.70;;;;;;6197791;28;20453;-76
2021/06/18 12:44:33;;;;;;;8.75;7.20;;;38.20;41.70;;;;;;6197559;28;20050;-76
2021/06/18 12:47:35;;;;;;;8.95;7.45;;;38.10;41.80;;;;;;6198067;28;20065;-76
2021/06/18 12:50:40;;;;;;;9.10;6.20;;;38.10;42.10;;;;;;6197339;28;20594;-75
2021/06/18 12:53:42;;;;;;;10.60;7.25;;;38.10;42.20;;;;;;6197432;28;20677;-76
2021/06/18 12:56:45;;;;;;;8.25;6.10;;;38.20;41.70;;;;;;6197778;28;20055;-75
2021/06/18 12:59:48;;;;;;;8.80;6.20;;;38.30;41.50;;;;;;6197420;28;20054;-76
2021/06/18 13:02:57;;;;;;;12.10;6.55;;;38.40;41.50;;;;;;6193817;28;20520;-76
2021/06/18 13:06:00;;;;;;;8.07;6.35;;;38.50;40.40;;;;;;6194357;28;20058;-76
2021/06/18 13:09:03;;;;;;;8.10;6.03;;;38.60;40.30;;;;;;6198086;28;20085;-76
2021/06/18 13:12:06;;;;;;;8.57;5.97;;;38.70;40.50;;;;;;6197264;28;20042;-75
2021/06/18 13:15:10;;;;;;;8.55;6.07;;;38.70;40.30;;;;;;6197523;28;20516;-76
2021/06/18 13:18:12;;;;;;;7.07;6.38;;;38.80;40.20;;;;;;6197165;28;20043;-75
2021/06/18 13:21:14;;;;;;;12.48;6.85;;;38.80;39.60;;;;;;6197439;28;20051;-75
2021/06/18 13:24:17;;;;;;;7.50;6.32;;;38.80;39.80;;;;;;6269887;23;20049;-80
2021/06/18 13:27:19;;;;;;;8.82;7.13;;;38.80;39.90;;;;;;6252001;28;20081;-79
2021/06/18 13:30:22;;;;;;;7.65;6.22;;;38.90;39.80;;;;;;6251871;28;20119;-82
2021/06/18 13:33:25;;;;;;;7.78;5.57;;;38.90;39.90;;;;;;6251297;28;20124;-81
2021/06/18 13:36:29;;;;;;;12.57;6.60;;;38.80;40.60;;;;;;6250505;28;20131;-79
2021/06/18 13:39:37;;;;;;;11.75;7.70;;;38.80;39.80;;;;;;6251365;28;20124;-80
2021/06/18 13:42:38;;;;;;;13.50;6.63;;;38.70;39.30;;;;;;6252926;28;20121;-81
2021/06/18 13:45:42;;;;;;;8.55;6.38;;;38.70;39.60;;;;;;6251450;28;20562;-80
2021/06/18 13:48:44;;;;;;;10.75;6.28;;;38.80;40.20;;;;;;6250675;28;20584;-79
2021/06/18 13:51:46;;;;;;;9.20;5.85;;;39.00;40.10;;;;;;6250777;28;20099;-80
2021/06/18 13:54:47;;;;;;;7.97;6.28;;;39.10;38.90;;;;;;6249766;28;20060;-80
2021/06/18 13:57:49;;;;;;;21.77;5.82;;;39.10;39.20;;;;;;6250900;28;20073;-81
2021/06/18 14:00:53;;;;;;;11.88;6.97;;;39.10;38.70;;;;;;6251109;28;20502;-81
2021/06/18 14:03:54;;;;;;;12.98;6.70;;;39.20;39.00;;;;;;6249788;28;20042;-80
2021/06/18 14:06:57;;;;;;;10.52;6.38;;;39.20;38.60;;;;;;6254529;28;20073;-80
2021/06/18 14:09:59;;;;;;;6.07;5.43;;;39.20;38.40;;;;;;6256181;28;20057;-79
2021/06/18 14:13:00;;;;;;;8.85;6.22;;;39.20;38.00;;;;;;6257809;28;20075;-80
2021/06/18 14:16:04;;;;;;;6.28;5.20;;;39.20;38.60;;;;;;6258527;28;20708;-81
2021/06/18 14:19:06;;;;;;;7.63;6.05;;;39.10;38.00;;;;;;6255952;28;20069;-79
2021/06/18 14:22:08;;;;;;;8.93;5.72;;;38.90;37.70;;;;;;6254973;28;20399;-80
2021/06/18 14:25:10;;;;;;;12.93;5.75;;;38.70;38.60;;;;;;6256514;28;20045;-80
2021/06/18 14:28:13;;;;;;;6.03;5.43;;;38.80;38.60;;;;;;6257118;28;20116;-80
2021/06/18 14:31:17;;;;;;;7.10;6.18;;;39.00;38.40;;;;;;6257170;28;20056;-80
2021/06/18 14:34:19;;;;;;;10.63;5.53;;;39.00;38.20;;;;;;6257001;28;20052;-81
2021/06/18 14:37:21;;;;;;;5.65;5.15;;;38.90;38.30;;;;;;6256920;28;20053;-80
2021/06/18 14:40:23;;;;;;;13.63;5.32;;;38.70;38.30;;;;;;6256949;28;20519;-80
2021/06/18 14:43:25;;;;;;;7.50;5.20;;;38.60;38.10;;;;;;6256714;28;20048;-80
2021/06/18 14:46:29;;;;;;;11.73;6.00;;;38.60;38.00;;;;;;6256893;28;20458;-80
2021/06/18 14:49:30;;;;;;;7.78;5.97;;;38.80;37.80;;;;;;6257758;28;20102;-80
2021/06/18 14:52:32;;;;;;;7.47;4.55;;;39.00;36.90;;;;;;6257132;28;20538;-80
2021/06/18 14:55:35;;;;;;;10.25;4.72;;;39.10;36.30;;;;;;6256644;28;20119;-80
2021/06/18 14:58:37;;;;;;;8.48;4.80;;;39.10;36.50;;;;;;6255986;28;20057;-79
2021/06/18 15:01:40;;;;;;;6.43;4.90;;;39.10;36.70;;;;;;6256249;28;20134;-80
2021/06/18 15:04:42;;;;;;;6.55;6.05;;;38.90;36.30;;;;;;6256740;28;20077;-80
2021/06/18 15:07:44;;;;;;;7.78;4.25;;;38.80;37.20;;;;;;6255627;28;20585;-80
2021/06/18 15:10:45;;;;;;;7.30;4.68;;;38.80;36.80;;;;;;6255699;28;20143;-79
2021/06/18 15:13:48;;;;;;;4.63;4.03;;;38.90;36.10;;;;;;6255248;28;20108;-79
2021/06/18 15:16:51;;;;;;;27.70;4.32;;;38.80;36.30;;;;;;6257037;28;20050;-79
2021/06/18 15:19:53;;;;;;;8.10;4.13;;;38.50;33.40;;;;;;6255548;28;20049;-81
2021/06/18 15:22:54;;;;;;;7.72;4.32;;;38.20;34.30;;;;;;6256575;28;20550;-80
2021/06/18 15:25:56;;;;;;;15.60;5.35;;;38.30;36.20;;;;;;6255281;28;20080;-81
2021/06/18 15:28:58;;;;;;;6.47;4.57;;;38.50;36.40;;;;;;6255105;28;20457;-80
2021/06/18 15:32:02;;;;;;;6.20;4.03;;;38.60;36.90;;;;;;6255312;28;20049;-80
2021/06/18 15:35:05;;;;;;;4.43;3.92;;;38.80;35.80;;;;;;6255598;28;20052;-81
2021/06/18 15:38:06;;;;;;;6.43;4.30;;;38.80;35.50;;;;;;6255200;28;20069;-79
2021/06/18 15:41:08;;;;;;;3.80;3.45;;;38.70;35.40;;;;;;6254438;28;20108;-78
2021/06/18 15:44:11;;;;;;;6.57;4.97;;;38.70;33.80;;;;;;6233935;28;20511;-79
2021/06/18 15:47:15;;;;;;;13.77;5.25;;;38.30;35.20;;;;;;6229452;28;20077;-79
2021/06/18 15:50:19;;;;;;;5.43;4.82;;;38.00;36.90;;;;;;6232130;28;20046;-78